sensor_id;sensor_type;location;lat;lon;timestamp;P1;P2;P0
57049;PMS7003;42935;50.966;16.992;2023-11-18T00:01:47;2;2;1
57049;PMS7003;42935;50.966;16.992;2023-11-18T00:05:03;7;3;2
57049;PMS7003;42935;50.966;16.992;2023-11-18T00:08:18;6;3;2
57049;PMS7003;42935;50.966;16.992;2023-11-18T00:11:33;2;2;1
57049;PMS7003;42935;50.966;16.992;2023-11-18T00:14:50;7;2;2
57049;PMS7003;42935;50.966;16.992;2023-11-18T00:18:12;3;2;2
57049;PMS7003;42935;50.966;16.992;2023-11-18T00:21:30;2;2;1
57049;PMS7003;42935;50.966;16.992;2023-11-18T00:24:49;3;2;1
57049;PMS7003;42935;50.966;16.992;2023-11-18T00:28:07;2;2;1
57049;PMS7003;42935;50.966;16.992;2023-11-18T00:31:25;5;3;2
57049;PMS7003;42935;50.966;16.992;2023-11-18T00:34:42;8;3;1
57049;PMS7003;42935;50.966;16.992;2023-11-18T00:38:01;1;1;1
57049;PMS7003;42935;50.966;16.992;2023-11-18T00:41:18;2;2;0
57049;PMS7003;42935;50.966;16.992;2023-11-18T00:44:41;6;3;2
57049;PMS7003;42935;50.966;16.992;2023-11-18T00:47:59;3;1;1
57049;PMS7003;42935;50.966;16.992;2023-11-18T00:51:11;5;3;2
57049;PMS7003;42935;50.966;16.992;2023-11-18T00:54:27;4;3;2
57049;PMS7003;42935;50.966;16.992;2023-11-18T00:57:45;6;3;2
57049;PMS7003;42935;50.966;16.992;2023-11-18T01:01:00;5;2;1
57049;PMS7003;42935;50.966;16.992;2023-11-18T01:04:19;6;4;2
57049;PMS7003;42935;50.966;16.992;2023-11-18T01:07:35;2;1;1
57049;PMS7003;42935;50.966;16.992;2023-11-18T01:10:56;4;3;2
57049;PMS7003;42935;50.966;16.992;2023-11-18T01:14:12;5;3;3
57049;PMS7003;42935;50.966;16.992;2023-11-18T01:17:30;6;3;3
57049;PMS7003;42935;50.966;16.992;2023-11-18T01:20:47;3;3;3
57049;PMS7003;42935;50.966;16.992;2023-11-18T01:24:06;3;2;1
57049;PMS7003;42935;50.966;16.992;2023-11-18T01:27:24;7;5;3
57049;PMS7003;42935;50.966;16.992;2023-11-18T01:30:36;3;2;1
57049;PMS7003;42935;50.966;16.992;2023-11-18T01:33:49;2;2;1
57049;PMS7003;42935;50.966;16.992;2023-11-18T01:37:09;4;3;2
57049;PMS7003;42935;50.966;16.992;2023-11-18T01:40:23;4;3;2
57049;PMS7003;42935;50.966;16.992;2023-11-18T01:43:40;4;3;1
57049;PMS7003;42935;50.966;16.992;2023-11-18T01:46:59;4;3;2
57049;PMS7003;42935;50.966;16.992;2023-11-18T01:50:17;2;2;1
57049;PMS7003;42935;50.966;16.992;2023-11-18T01:53:36;2;2;0
57049;PMS7003;42935;50.966;16.992;2023-11-18T01:56:56;4;1;1
57049;PMS7003;42935;50.966;16.992;2023-11-18T02:00:19;9;3;3
57049;PMS7003;42935;50.966;16.992;2023-11-18T02:03:37;3;1;0
57049;PMS7003;42935;50.966;16.992;2023-11-18T02:06:56;3;2;1
57049;PMS7003;42935;50.966;16.992;2023-11-18T02:10:26;5;4;2
57049;PMS7003;42935;50.966;16.992;2023-11-18T02:13:44;4;3;3
57049;PMS7003;42935;50.966;16.992;2023-11-18T02:17:06;3;1;1
57049;PMS7003;42935;50.966;16.992;2023-11-18T02:20:25;7;2;2
57049;PMS7003;42935;50.966;16.992;2023-11-18T02:23:47;7;2;2
57049;PMS7003;42935;50.966;16.992;2023-11-18T02:27:06;6;3;2
57049;PMS7003;42935;50.966;16.992;2023-11-18T02:30:27;3;3;3
57049;PMS7003;42935;50.966;16.992;2023-11-18T02:33:50;6;4;3
57049;PMS7003;42935;50.966;16.992;2023-11-18T02:37:15;4;4;2
57049;PMS7003;42935;50.966;16.992;2023-11-18T02:40:37;4;3;2
57049;PMS7003;42935;50.966;16.992;2023-11-18T02:43:57;4;3;2
57049;PMS7003;42935;50.966;16.992;2023-11-18T02:47:16;7;3;2
57049;PMS7003;42935;50.966;16.992;2023-11-18T02:50:34;7;3;1
57049;PMS7003;42935;50.966;16.992;2023-11-18T02:53:52;5;5;3
57049;PMS7003;42935;50.966;16.992;2023-11-18T02:57:09;6;4;2
57049;PMS7003;42935;50.966;16.992;2023-11-18T03:00:28;5;2;2
57049;PMS7003;42935;50.966;16.992;2023-11-18T03:03:49;4;3;3
57049;PMS7003;42935;50.966;16.992;2023-11-18T03:07:03;4;1;1
57049;PMS7003;42935;50.966;16.992;2023-11-18T03:10:21;4;2;2
57049;PMS7003;42935;50.966;16.992;2023-11-18T03:13:35;5;3;2
57049;PMS7003;42935;50.966;16.992;2023-11-18T03:16:54;3;2;2
57049;PMS7003;42935;50.966;16.992;2023-11-18T03:20:12;4;2;2
57049;PMS7003;42935;50.966;16.992;2023-11-18T03:23:28;3;2;2
57049;PMS7003;42935;50.966;16.992;2023-11-18T03:26:44;4;1;1
57049;PMS7003;42935;50.966;16.992;2023-11-18T03:29:59;2;1;0
57049;PMS7003;42935;50.966;16.992;2023-11-18T03:33:16;4;2;2
57049;PMS7003;42935;50.966;16.992;2023-11-18T03:36:35;4;2;1
57049;PMS7003;42935;50.966;16.992;2023-11-18T03:39:56;3;1;1
57049;PMS7003;42935;50.966;16.992;2023-11-18T03:43:11;3;3;1
57049;PMS7003;42935;50.966;16.992;2023-11-18T03:46:28;4;1;1
57049;PMS7003;42935;50.966;16.992;2023-11-18T03:49:47;5;3;1
57049;PMS7003;42935;50.966;16.992;2023-11-18T03:53:05;6;2;2
57049;PMS7003;42935;50.966;16.992;2023-11-18T03:56:19;2;1;0
57049;PMS7003;42935;50.966;16.992;2023-11-18T03:59:34;2;2;1
57049;PMS7003;42935;50.966;16.992;2023-11-18T04:02:49;3;2;1
57049;PMS7003;42935;50.966;16.992;2023-11-18T04:06:04;3;1;1
57049;PMS7003;42935;50.966;16.992;2023-11-18T04:09:24;3;2;1
57049;PMS7003;42935;50.966;16.992;2023-11-18T04:12:39;7;3;2
57049;PMS7003;42935;50.966;16.992;2023-11-18T04:16:03;4;3;2
57049;PMS7003;42935;50.966;16.992;2023-11-18T04:19:22;1;1;1
57049;PMS7003;42935;50.966;16.992;2023-11-18T04:22:42;3;3;2
57049;PMS7003;42935;50.966;16.992;2023-11-18T04:25:55;2;2;0
57049;PMS7003;42935;50.966;16.992;2023-11-18T04:29:10;3;1;0
57049;PMS7003;42935;50.966;16.992;2023-11-18T04:32:28;5;3;2
57049;PMS7003;42935;50.966;16.992;2023-11-18T04:35:49;5;3;3
57049;PMS7003;42935;50.966;16.992;2023-11-18T04:39:07;3;2;2
57049;PMS7003;42935;50.966;16.992;2023-11-18T04:42:27;8;2;2
57049;PMS7003;42935;50.966;16.992;2023-11-18T04:45:42;3;1;0
57049;PMS7003;42935;50.966;16.992;2023-11-18T04:48:57;7;2;2
57049;PMS7003;42935;50.966;16.992;2023-11-18T04:52:19;3;3;2
57049;PMS7003;42935;50.966;16.992;2023-11-18T04:55:37;3;1;1
57049;PMS7003;42935;50.966;16.992;2023-11-18T04:58:55;3;2;1
57049;PMS7003;42935;50.966;16.992;2023-11-18T05:02:12;3;1;1
57049;PMS7003;42935;50.966;16.992;2023-11-18T05:05:24;5;3;2
57049;PMS7003;42935;50.966;16.992;2023-11-18T05:08:42;2;2;1
57049;PMS7003;42935;50.966;16.992;2023-11-18T05:11:55;8;1;0
57049;PMS7003;42935;50.966;16.992;2023-11-18T05:15:14;5;2;1
57049;PMS7003;42935;50.966;16.992;2023-11-18T05:18:31;8;3;2
57049;PMS7003;42935;50.966;16.992;2023-11-18T05:21:54;5;3;2
57049;PMS7003;42935;50.966;16.992;2023-11-18T05:25:12;2;1;0
57049;PMS7003;42935;50.966;16.992;2023-11-18T05:28:24;4;1;1
57049;PMS7003;42935;50.966;16.992;2023-11-18T05:31:38;4;3;2
57049;PMS7003;42935;50.966;16.992;2023-11-18T05:34:56;8;4;3
57049;PMS7003;42935;50.966;16.992;2023-11-18T05:38:11;5;4;3
57049;PMS7003;42935;50.966;16.992;2023-11-18T05:41:33;6;3;2
57049;PMS7003;42935;50.966;16.992;2023-11-18T05:44:55;7;4;3
57049;PMS7003;42935;50.966;16.992;2023-11-18T05:48:11;4;2;1
57049;PMS7003;42935;50.966;16.992;2023-11-18T05:51:29;3;3;3
57049;PMS7003;42935;50.966;16.992;2023-11-18T05:54:43;3;2;1
57049;PMS7003;42935;50.966;16.992;2023-11-18T05:57:59;4;3;2
57049;PMS7003;42935;50.966;16.992;2023-11-18T06:01:24;4;3;2
57049;PMS7003;42935;50.966;16.992;2023-11-18T06:04:46;9;3;3
57049;PMS7003;42935;50.966;16.992;2023-11-18T06:08:04;6;4;3
57049;PMS7003;42935;50.966;16.992;2023-11-18T06:11:20;10;5;3
57049;PMS7003;42935;50.966;16.992;2023-11-18T06:14:39;7;4;4
57049;PMS7003;42935;50.966;16.992;2023-11-18T06:17:59;8;6;4
57049;PMS7003;42935;50.966;16.992;2023-11-18T06:21:18;9;7;5
57049;PMS7003;42935;50.966;16.992;2023-11-18T06:24:39;13;6;4
57049;PMS7003;42935;50.966;16.992;2023-11-18T06:27:58;9;7;5
57049;PMS7003;42935;50.966;16.992;2023-11-18T06:31:15;14;8;5
57049;PMS7003;42935;50.966;16.992;2023-11-18T06:34:33;12;6;4
57049;PMS7003;42935;50.966;16.992;2023-11-18T06:37:48;10;6;4
57049;PMS7003;42935;50.966;16.992;2023-11-18T06:41:06;12;7;4
57049;PMS7003;42935;50.966;16.992;2023-11-18T06:44:28;9;6;4
57049;PMS7003;42935;50.966;16.992;2023-11-18T06:47:45;9;5;4
57049;PMS7003;42935;50.966;16.992;2023-11-18T06:51:01;12;6;4
57049;PMS7003;42935;50.966;16.992;2023-11-18T06:54:23;12;7;5
57049;PMS7003;42935;50.966;16.992;2023-11-18T06:57:39;8;6;4
57049;PMS7003;42935;50.966;16.992;2023-11-18T07:01:03;27;16;10
57049;PMS7003;42935;50.966;16.992;2023-11-18T07:04:24;32;20;12
57049;PMS7003;42935;50.966;16.992;2023-11-18T07:07:37;30;18;12
57049;PMS7003;42935;50.966;16.992;2023-11-18T07:10:54;38;30;19
57049;PMS7003;42935;50.966;16.992;2023-11-18T07:14:16;34;25;14
57049;PMS7003;42935;50.966;16.992;2023-11-18T07:17:36;19;14;7
57049;PMS7003;42935;50.966;16.992;2023-11-18T07:20:54;13;8;6
57049;PMS7003;42935;50.966;16.992;2023-11-18T07:24:09;14;6;5
57049;PMS7003;42935;50.966;16.992;2023-11-18T07:27:27;21;14;10
57049;PMS7003;42935;50.966;16.992;2023-11-18T07:30:43;15;10;7
57049;PMS7003;42935;50.966;16.992;2023-11-18T07:34:07;21;15;9
57049;PMS7003;42935;50.966;16.992;2023-11-18T07:37:24;10;6;3
57049;PMS7003;42935;50.966;16.992;2023-11-18T07:40:40;9;6;5
57049;PMS7003;42935;50.966;16.992;2023-11-18T07:44:02;15;7;5
57049;PMS7003;42935;50.966;16.992;2023-11-18T07:47:17;13;6;4
57049;PMS7003;42935;50.966;16.992;2023-11-18T07:50:37;10;7;5
57049;PMS7003;42935;50.966;16.992;2023-11-18T07:53:57;15;8;6
57049;PMS7003;42935;50.966;16.992;2023-11-18T07:57:15;12;9;6
57049;PMS7003;42935;50.966;16.992;2023-11-18T08:00:30;14;11;7
57049;PMS7003;42935;50.966;16.992;2023-11-18T08:03:50;15;10;7
57049;PMS7003;42935;50.966;16.992;2023-11-18T08:07:09;20;9;6
57049;PMS7003;42935;50.966;16.992;2023-11-18T08:10:21;12;8;6
57049;PMS7003;42935;50.966;16.992;2023-11-18T08:13:45;19;14;7
57049;PMS7003;42935;50.966;16.992;2023-11-18T08:17:03;16;10;7
57049;PMS7003;42935;50.966;16.992;2023-11-18T08:20:21;17;8;6
57049;PMS7003;42935;50.966;16.992;2023-11-18T08:23:38;16;10;8
57049;PMS7003;42935;50.966;16.992;2023-11-18T08:26:56;12;10;7
57049;PMS7003;42935;50.966;16.992;2023-11-18T08:30:13;13;10;7
57049;PMS7003;42935;50.966;16.992;2023-11-18T08:33:35;15;7;6
57049;PMS7003;42935;50.966;16.992;2023-11-18T08:36:50;13;12;7
57049;PMS7003;42935;50.966;16.992;2023-11-18T08:40:09;17;11;7
57049;PMS7003;42935;50.966;16.992;2023-11-18T08:43:31;17;10;7
57049;PMS7003;42935;50.966;16.992;2023-11-18T08:46:48;14;10;7
57049;PMS7003;42935;50.966;16.992;2023-11-18T08:50:10;15;8;7
57049;PMS7003;42935;50.966;16.992;2023-11-18T08:53:32;16;10;7
57049;PMS7003;42935;50.966;16.992;2023-11-18T08:56:57;13;10;7
57049;PMS7003;42935;50.966;16.992;2023-11-18T09:00:18;15;10;6
57049;PMS7003;42935;50.966;16.992;2023-11-18T09:03:47;13;9;6
57049;PMS7003;42935;50.966;16.992;2023-11-18T09:07:08;13;9;5
57049;PMS7003;42935;50.966;16.992;2023-11-18T09:10:24;13;9;6
57049;PMS7003;42935;50.966;16.992;2023-11-18T09:13:44;14;8;6
57049;PMS7003;42935;50.966;16.992;2023-11-18T09:17:09;17;9;5
57049;PMS7003;42935;50.966;16.992;2023-11-18T09:20:30;12;8;6
57049;PMS7003;42935;50.966;16.992;2023-11-18T09:23:48;14;8;6
57049;PMS7003;42935;50.966;16.992;2023-11-18T09:27:03;10;7;5
57049;PMS7003;42935;50.966;16.992;2023-11-18T09:30:22;13;7;5
57049;PMS7003;42935;50.966;16.992;2023-11-18T09:33:35;13;9;7
57049;PMS7003;42935;50.966;16.992;2023-11-18T09:36:59;12;9;7
57049;PMS7003;42935;50.966;16.992;2023-11-18T09:40:17;8;6;5
57049;PMS7003;42935;50.966;16.992;2023-11-18T09:43:41;12;10;7
57049;PMS7003;42935;50.966;16.992;2023-11-18T09:47:03;10;7;5
57049;PMS7003;42935;50.966;16.992;2023-11-18T09:50:25;15;10;7
57049;PMS7003;42935;50.966;16.992;2023-11-18T09:53:44;10;7;5
57049;PMS7003;42935;50.966;16.992;2023-11-18T10:00:38;13;10;8
57049;PMS7003;42935;50.966;16.992;2023-11-18T10:03:56;14;10;7
57049;PMS7003;42935;50.966;16.992;2023-11-18T10:07:14;13;11;7
57049;PMS7003;42935;50.966;16.992;2023-11-18T10:10:34;15;10;8
57049;PMS7003;42935;50.966;16.992;2023-11-18T10:14:01;15;9;6
57049;PMS7003;42935;50.966;16.992;2023-11-18T10:17:31;23;15;9
57049;PMS7003;42935;50.966;16.992;2023-11-18T10:20:54;13;11;8
57049;PMS7003;42935;50.966;16.992;2023-11-18T10:24:14;14;10;7
57049;PMS7003;42935;50.966;16.992;2023-11-18T10:27:35;12;10;7
57049;PMS7003;42935;50.966;16.992;2023-11-18T10:30:56;23;17;10
57049;PMS7003;42935;50.966;16.992;2023-11-18T10:34:14;15;9;6
57049;PMS7003;42935;50.966;16.992;2023-11-18T10:37:36;14;11;8
57049;PMS7003;42935;50.966;16.992;2023-11-18T10:41:01;19;11;8
57049;PMS7003;42935;50.966;16.992;2023-11-18T10:44:16;12;9;6
57049;PMS7003;42935;50.966;16.992;2023-11-18T10:47:34;16;13;10
57049;PMS7003;42935;50.966;16.992;2023-11-18T10:50:53;12;7;5
57049;PMS7003;42935;50.966;16.992;2023-11-18T10:54:14;12;9;7
57049;PMS7003;42935;50.966;16.992;2023-11-18T10:57:38;14;9;6
57049;PMS7003;42935;50.966;16.992;2023-11-18T11:00:57;10;8;6
57049;PMS7003;42935;50.966;16.992;2023-11-18T11:04:11;14;10;7
57049;PMS7003;42935;50.966;16.992;2023-11-18T11:07:36;13;10;7
57049;PMS7003;42935;50.966;16.992;2023-11-18T11:10:56;15;9;6
57049;PMS7003;42935;50.966;16.992;2023-11-18T11:14:11;13;10;8
57049;PMS7003;42935;50.966;16.992;2023-11-18T11:17:34;12;9;7
57049;PMS7003;42935;50.966;16.992;2023-11-18T11:24:40;15;14;10
57049;PMS7003;42935;50.966;16.992;2023-11-18T11:31:37;18;14;8
57049;PMS7003;42935;50.966;16.992;2023-11-18T11:35:29;24;15;9
57049;PMS7003;42935;50.966;16.992;2023-11-18T11:39:24;18;14;9
57049;PMS7003;42935;50.966;16.992;2023-11-18T11:42:52;14;10;6
57049;PMS7003;42935;50.966;16.992;2023-11-18T11:46:52;22;15;9
57049;PMS7003;42935;50.966;16.992;2023-11-18T11:50:13;14;8;6
57049;PMS7003;42935;50.966;16.992;2023-11-18T11:53:44;19;11;8
57049;PMS7003;42935;50.966;16.992;2023-11-18T11:57:09;13;10;6
57049;PMS7003;42935;50.966;16.992;2023-11-18T12:00:36;16;13;7
57049;PMS7003;42935;50.966;16.992;2023-11-18T12:03:56;17;10;6
57049;PMS7003;42935;50.966;16.992;2023-11-18T12:07:20;9;7;6
57049;PMS7003;42935;50.966;16.992;2023-11-18T12:10:50;13;9;6
57049;PMS7003;42935;50.966;16.992;2023-11-18T12:14:14;24;16;11
57049;PMS7003;42935;50.966;16.992;2023-11-18T12:21:51;14;9;7
57049;PMS7003;42935;50.966;16.992;2023-11-18T12:24:41;18;9;6
57049;PMS7003;42935;50.966;16.992;2023-11-18T12:27:58;27;18;13
57049;PMS7003;42935;50.966;16.992;2023-11-18T12:31:38;14;9;6
57049;PMS7003;42935;50.966;16.992;2023-11-18T12:34:52;17;11;8
57049;PMS7003;42935;50.966;16.992;2023-11-18T12:41:44;29;20;12
57049;PMS7003;42935;50.966;16.992;2023-11-18T13:06:10;32;21;14
57049;PMS7003;42935;50.966;16.992;2023-11-18T13:10:54;22;16;11
57049;PMS7003;42935;50.966;16.992;2023-11-18T13:15:30;20;12;8
57049;PMS7003;42935;50.966;16.992;2023-11-18T13:24:49;14;10;6
57049;PMS7003;42935;50.966;16.992;2023-11-18T13:29:23;12;10;7
57049;PMS7003;42935;50.966;16.992;2023-11-18T13:33:57;18;11;7
57049;PMS7003;42935;50.966;16.992;2023-11-18T13:38:31;19;13;10
57049;PMS7003;42935;50.966;16.992;2023-11-18T13:43:05;26;17;12
57049;PMS7003;42935;50.966;16.992;2023-11-18T13:47:38;33;23;16
57049;PMS7003;42935;50.966;16.992;2023-11-18T13:52:14;33;26;17
57049;PMS7003;42935;50.966;16.992;2023-11-18T13:56:50;40;26;18
57049;PMS7003;42935;50.966;16.992;2023-11-18T14:01:24;40;30;19
57049;PMS7003;42935;50.966;16.992;2023-11-18T14:06:00;27;23;16
57049;PMS7003;42935;50.966;16.992;2023-11-18T14:10:35;48;37;24
57049;PMS7003;42935;50.966;16.992;2023-11-18T14:15:12;53;38;25
57049;PMS7003;42935;50.966;16.992;2023-11-18T14:19:53;41;34;21
57049;PMS7003;42935;50.966;16.992;2023-11-18T14:24:34;37;30;18
57049;PMS7003;42935;50.966;16.992;2023-11-18T14:29:08;57;43;28
57049;PMS7003;42935;50.966;16.992;2023-11-18T14:33:51;64;46;29
57049;PMS7003;42935;50.966;16.992;2023-11-18T14:38:37;50;36;23
57049;PMS7003;42935;50.966;16.992;2023-11-18T14:43:11;45;31;20
57049;PMS7003;42935;50.966;16.992;2023-11-18T14:47:52;52;37;22
57049;PMS7003;42935;50.966;16.992;2023-11-18T14:52:36;44;33;19
57049;PMS7003;42935;50.966;16.992;2023-11-18T14:57:15;40;31;19
57049;PMS7003;42935;50.966;16.992;2023-11-18T15:01:51;40;28;18
57049;PMS7003;42935;50.966;16.992;2023-11-18T15:06:29;39;28;18
57049;PMS7003;42935;50.966;16.992;2023-11-18T15:11:07;33;28;17
57049;PMS7003;42935;50.966;16.992;2023-11-18T15:15:44;27;22;14
57049;PMS7003;42935;50.966;16.992;2023-11-18T15:20:23;33;25;15
57049;PMS7003;42935;50.966;16.992;2023-11-18T15:24:56;31;25;16
57049;PMS7003;42935;50.966;16.992;2023-11-18T15:29:31;24;17;12
57049;PMS7003;42935;50.966;16.992;2023-11-18T15:34:14;18;14;9
57049;PMS7003;42935;50.966;16.992;2023-11-18T15:38:48;21;15;9
57049;PMS7003;42935;50.966;16.992;2023-11-18T15:43:21;16;10;6
57049;PMS7003;42935;50.966;16.992;2023-11-18T15:48:02;21;15;8
57049;PMS7003;42935;50.966;16.992;2023-11-18T15:52:38;15;12;9
57049;PMS7003;42935;50.966;16.992;2023-11-18T15:57:12;25;17;12
57049;PMS7003;42935;50.966;16.992;2023-11-18T16:01:48;20;15;9
57049;PMS7003;42935;50.966;16.992;2023-11-18T16:06:24;28;17;12
57049;PMS7003;42935;50.966;16.992;2023-11-18T16:11:01;25;18;11
57049;PMS7003;42935;50.966;16.992;2023-11-18T16:15:36;24;13;10
57049;PMS7003;42935;50.966;16.992;2023-11-18T16:20:09;28;15;10
57049;PMS7003;42935;50.966;16.992;2023-11-18T16:24:46;23;19;13
57049;PMS7003;42935;50.966;16.992;2023-11-18T16:29:20;30;16;11
57049;PMS7003;42935;50.966;16.992;2023-11-18T16:33:53;32;21;15
57049;PMS7003;42935;50.966;16.992;2023-11-18T16:38:26;28;16;11
57049;PMS7003;42935;50.966;16.992;2023-11-18T16:43:04;42;31;18
57049;PMS7003;42935;50.966;16.992;2023-11-18T16:47:47;50;34;19
57049;PMS7003;42935;50.966;16.992;2023-11-18T16:52:27;38;27;17
57049;PMS7003;42935;50.966;16.992;2023-11-18T16:57:09;67;45;26
57049;PMS7003;42935;50.966;16.992;2023-11-18T17:01:46;84;61;37
57049;PMS7003;42935;50.966;16.992;2023-11-18T17:06:23;48;35;21
57049;PMS7003;42935;50.966;16.992;2023-11-18T17:11:02;45;32;20
57049;PMS7003;42935;50.966;16.992;2023-11-18T17:15:44;61;43;27
57049;PMS7003;42935;50.966;16.992;2023-11-18T17:20:18;23;18;12
57049;PMS7003;42935;50.966;16.992;2023-11-18T17:24:51;32;23;14
57049;PMS7003;42935;50.966;16.992;2023-11-18T17:29:27;28;27;16
57049;PMS7003;42935;50.966;16.992;2023-11-18T17:34:01;40;27;18
57049;PMS7003;42935;50.966;16.992;2023-11-18T17:38:35;39;26;16
57049;PMS7003;42935;50.966;16.992;2023-11-18T17:43:12;50;35;21
57049;PMS7003;42935;50.966;16.992;2023-11-18T17:47:54;47;35;20
57049;PMS7003;42935;50.966;16.992;2023-11-18T17:52:27;29;19;11
57049;PMS7003;42935;50.966;16.992;2023-11-18T17:57:00;29;17;12
57049;PMS7003;42935;50.966;16.992;2023-11-18T18:01:41;26;20;11
57049;PMS7003;42935;50.966;16.992;2023-11-18T18:06:17;23;15;9
57049;PMS7003;42935;50.966;16.992;2023-11-18T18:10:51;24;15;10
57049;PMS7003;42935;50.966;16.992;2023-11-18T18:15:24;24;15;10
57049;PMS7003;42935;50.966;16.992;2023-11-18T18:20:00;24;17;11
57049;PMS7003;42935;50.966;16.992;2023-11-18T18:24:35;25;15;11
57049;PMS7003;42935;50.966;16.992;2023-11-18T18:29:08;26;18;12
57049;PMS7003;42935;50.966;16.992;2023-11-18T18:33:47;32;23;14
57049;PMS7003;42935;50.966;16.992;2023-11-18T18:38:22;29;18;13
57049;PMS7003;42935;50.966;16.992;2023-11-18T18:42:56;22;16;10
57049;PMS7003;42935;50.966;16.992;2023-11-18T18:47:33;22;18;10
57049;PMS7003;42935;50.966;16.992;2023-11-18T18:52:06;18;13;10
57049;PMS7003;42935;50.966;16.992;2023-11-18T18:56:39;17;12;7
57049;PMS7003;42935;50.966;16.992;2023-11-18T19:01:12;12;9;7
57049;PMS7003;42935;50.966;16.992;2023-11-18T19:05:47;14;11;7
57049;PMS7003;42935;50.966;16.992;2023-11-18T19:10:21;16;9;7
57049;PMS7003;42935;50.966;16.992;2023-11-18T19:14:56;15;11;8
57049;PMS7003;42935;50.966;16.992;2023-11-18T19:19:34;13;9;7
57049;PMS7003;42935;50.966;16.992;2023-11-18T19:24:08;11;8;6
57049;PMS7003;42935;50.966;16.992;2023-11-18T19:28:45;12;8;6
57049;PMS7003;42935;50.966;16.992;2023-11-18T19:33:19;14;11;7
57049;PMS7003;42935;50.966;16.992;2023-11-18T19:37:53;10;10;7
57049;PMS7003;42935;50.966;16.992;2023-11-18T19:42:26;13;11;8
57049;PMS7003;42935;50.966;16.992;2023-11-18T19:47:00;21;12;7
57049;PMS7003;42935;50.966;16.992;2023-11-18T19:51:33;19;13;9
57049;PMS7003;42935;50.966;16.992;2023-11-18T19:56:07;21;15;11
57049;PMS7003;42935;50.966;16.992;2023-11-18T20:00:49;24;18;11
57049;PMS7003;42935;50.966;16.992;2023-11-18T20:05:24;19;16;10
57049;PMS7003;42935;50.966;16.992;2023-11-18T20:09:59;19;15;12
57049;PMS7003;42935;50.966;16.992;2023-11-18T20:14:33;23;14;10
57049;PMS7003;42935;50.966;16.992;2023-11-18T20:19:08;22;14;10
57049;PMS7003;42935;50.966;16.992;2023-11-18T20:23:41;25;19;14
57049;PMS7003;42935;50.966;16.992;2023-11-18T20:28:14;24;19;12
57049;PMS7003;42935;50.966;16.992;2023-11-18T20:32:48;29;17;13
57049;PMS7003;42935;50.966;16.992;2023-11-18T20:37:47;34;24;16
57049;PMS7003;42935;50.966;16.992;2023-11-18T20:42:21;35;24;17
57049;PMS7003;42935;50.966;16.992;2023-11-18T20:46:55;30;22;14
57049;PMS7003;42935;50.966;16.992;2023-11-18T20:51:28;30;22;13
57049;PMS7003;42935;50.966;16.992;2023-11-18T20:56:06;36;29;18
57049;PMS7003;42935;50.966;16.992;2023-11-18T21:00:40;35;25;16
57049;PMS7003;42935;50.966;16.992;2023-11-18T21:05:22;40;29;18
57049;PMS7003;42935;50.966;16.992;2023-11-18T21:09:59;41;28;18
57049;PMS7003;42935;50.966;16.992;2023-11-18T21:14:36;26;22;13
57049;PMS7003;42935;50.966;16.992;2023-11-18T21:19:05;31;25;16
57049;PMS7003;42935;50.966;16.992;2023-11-18T21:23:42;32;23;15
57049;PMS7003;42935;50.966;16.992;2023-11-18T21:28:15;31;20;13
57049;PMS7003;42935;50.966;16.992;2023-11-18T21:32:53;28;19;12
57049;PMS7003;42935;50.966;16.992;2023-11-18T21:37:34;35;23;15
57049;PMS7003;42935;50.966;16.992;2023-11-18T21:42:10;25;16;11
57049;PMS7003;42935;50.966;16.992;2023-11-18T21:46:49;22;16;11
57049;PMS7003;42935;50.966;16.992;2023-11-18T21:51:30;27;20;13
57049;PMS7003;42935;50.966;16.992;2023-11-18T21:56:04;17;13;9
57049;PMS7003;42935;50.966;16.992;2023-11-18T22:00:38;18;13;9
57049;PMS7003;42935;50.966;16.992;2023-11-18T22:05:11;20;14;10
57049;PMS7003;42935;50.966;16.992;2023-11-18T22:09:50;31;26;15
57049;PMS7003;42935;50.966;16.992;2023-11-18T22:14:23;40;30;18
57049;PMS7003;42935;50.966;16.992;2023-11-18T22:18:58;48;31;19
57049;PMS7003;42935;50.966;16.992;2023-11-18T22:23:32;28;21;14
57049;PMS7003;42935;50.966;16.992;2023-11-18T22:28:05;35;23;17
57049;PMS7003;42935;50.966;16.992;2023-11-18T22:32:41;48;28;14
57049;PMS7003;42935;50.966;16.992;2023-11-18T22:37:15;38;27;16
57049;PMS7003;42935;50.966;16.992;2023-11-18T22:41:57;52;36;22
57049;PMS7003;42935;50.966;16.992;2023-11-18T22:46:30;47;28;19
57049;PMS7003;42935;50.966;16.992;2023-11-18T22:51:08;55;40;25
57049;PMS7003;42935;50.966;16.992;2023-11-18T22:55:43;50;34;20
57049;PMS7003;42935;50.966;16.992;2023-11-18T23:00:22;53;39;24
57049;PMS7003;42935;50.966;16.992;2023-11-18T23:05:10;50;38;24
57049;PMS7003;42935;50.966;16.992;2023-11-18T23:09:53;50;34;21
57049;PMS7003;42935;50.966;16.992;2023-11-18T23:14:35;46;33;22
57049;PMS7003;42935;50.966;16.992;2023-11-18T23:19:12;45;33;21
57049;PMS7003;42935;50.966;16.992;2023-11-18T23:23:50;56;39;23
57049;PMS7003;42935;50.966;16.992;2023-11-18T23:28:27;45;32;19
57049;PMS7003;42935;50.966;16.992;2023-11-18T23:33:02;34;27;17
57049;PMS7003;42935;50.966;16.992;2023-11-18T23:37:36;44;31;20
57049;PMS7003;42935;50.966;16.992;2023-11-18T23:42:09;40;28;19
57049;PMS7003;42935;50.966;16.992;2023-11-18T23:46:42;41;27;20
57049;PMS7003;42935;50.966;16.992;2023-11-18T23:51:15;48;36;21
57049;PMS7003;42935;50.966;16.992;2023-11-18T23:55:54;48;35;19
